San Carlos Park, Florida
Current Conditions -  °F | °C
As of 3:53 PM on Friday 31 Oct 2014 (Local Time) from KFMY Reporting Station
Clear Clear  
Wind Chill: 79°   Ceiling: Unl
Heat Index: 80°   Visibility: 10mi
Dew Point: 60°   Wind: 14mph
Humidity: 52%   Direction: 300°WNW
Pressure: 29.8"   Gusts: NA
Location:  26.6372°N, 81.8725°W
Report Text: KFMY 311953Z AUTO 30012KT 10SM CLR 26/16 A2980 RMK AO2 SLP094 T02610156
Loading
Personal Weather Stations






























Interactive Weather Map
Tropical Storm Tracking
New forecast layout! Learn more

10-Day Weather Forecast

Advertisements
Track Severe Weather on mobile